createdAt,value
2023-10-23T00:00:44.591Z,8.77
2023-10-23T00:03:11.230Z,8.74
2023-10-23T00:05:38.237Z,8.91
2023-10-23T00:08:04.840Z,8.86
2023-10-23T00:10:31.487Z,8.67
2023-10-23T00:12:58.016Z,8.72
2023-10-23T00:15:24.666Z,8.66
2023-10-23T00:17:51.265Z,8.61
2023-10-23T00:20:17.817Z,8.32
2023-10-23T00:22:44.291Z,8.46
2023-10-23T00:25:10.782Z,8.34
2023-10-23T00:27:37.407Z,8.38
2023-10-23T00:30:04.349Z,8.37
2023-10-23T00:32:30.883Z,8.41
2023-10-23T00:34:57.423Z,8.31
2023-10-23T00:37:23.906Z,8.13
2023-10-23T00:39:50.354Z,8.20
2023-10-23T00:42:16.885Z,8.11
2023-10-23T00:44:43.339Z,8.03
2023-10-23T00:47:11.402Z,8.09
2023-10-23T00:49:38.669Z,8.01
2023-10-23T00:52:06.457Z,8.17
2023-10-23T00:54:34.186Z,8.24
2023-10-23T00:57:00.868Z,8.02
2023-10-23T00:59:27.419Z,8.14
2023-10-23T01:01:54.954Z,7.97
2023-10-23T01:04:22.038Z,7.93
2023-10-23T01:06:48.684Z,7.86
2023-10-23T01:09:15.361Z,7.89
2023-10-23T01:11:41.890Z,7.94
2023-10-23T01:14:08.461Z,7.81
2023-10-23T01:16:34.985Z,7.79
2023-10-23T01:19:01.704Z,7.80
2023-10-23T01:21:28.292Z,7.88
2023-10-23T01:23:57.997Z,7.88
2023-10-23T01:26:24.452Z,7.88
2023-10-23T01:28:50.948Z,7.93
2023-10-23T01:31:17.898Z,7.87
2023-10-23T01:33:44.487Z,7.74
2023-10-23T01:36:11.034Z,7.61
2023-10-23T01:38:37.472Z,7.70
2023-10-23T01:41:03.961Z,7.74
2023-10-23T01:43:30.406Z,7.54
2023-10-23T01:45:58.826Z,7.32
2023-10-23T01:48:25.394Z,7.50
2023-10-23T01:50:51.932Z,7.34
2023-10-23T01:53:19.471Z,7.34
2023-10-23T01:55:46.006Z,7.27
2023-10-23T01:58:12.482Z,7.02
2023-10-23T02:00:39.001Z,6.94
2023-10-23T02:03:05.700Z,7.07
2023-10-23T02:05:32.366Z,7.00
2023-10-23T02:07:59.817Z,7.07
2023-10-23T02:10:26.411Z,6.99
2023-10-23T02:12:52.945Z,6.96
2023-10-23T02:15:19.438Z,6.97
2023-10-23T02:17:46.179Z,6.93
2023-10-23T02:20:12.809Z,6.95
2023-10-23T02:22:39.338Z,6.74
2023-10-23T02:25:06.752Z,6.58
2023-10-23T02:27:33.314Z,6.34
2023-10-23T02:29:59.844Z,6.55
2023-10-23T02:32:26.471Z,6.59
2023-10-23T02:34:52.978Z,6.59
2023-10-23T02:37:19.514Z,6.61
2023-10-23T02:39:46.110Z,6.50
2023-10-23T02:42:12.608Z,6.27
2023-10-23T02:44:39.094Z,6.05
2023-10-23T02:47:05.673Z,5.98
2023-10-23T02:49:32.223Z,6.19
2023-10-23T02:51:58.730Z,6.26
2023-10-23T02:54:25.304Z,6.26
2023-10-23T02:56:51.895Z,6.43
2023-10-23T02:59:18.362Z,6.37
2023-10-23T03:01:45.614Z,6.38
2023-10-23T03:04:12.202Z,6.52
2023-10-23T03:06:38.810Z,6.43
2023-10-23T03:09:06.058Z,6.44
2023-10-23T03:11:32.712Z,6.51
2023-10-23T03:14:00.073Z,6.49
2023-10-23T03:16:27.333Z,6.15
2023-10-23T03:18:54.669Z,6.09
2023-10-23T03:21:21.269Z,6.15
2023-10-23T03:23:48.213Z,6.07
2023-10-23T03:26:15.514Z,6.05
2023-10-23T03:28:42.071Z,6.05
2023-10-23T03:31:08.560Z,6.07
2023-10-23T03:33:35.149Z,5.81
2023-10-23T03:36:01.701Z,5.98
2023-10-23T03:38:28.303Z,5.68
2023-10-23T03:40:59.891Z,5.72
2023-10-23T03:43:27.115Z,5.71
2023-10-23T03:45:54.194Z,5.73
2023-10-23T03:48:20.894Z,5.79
2023-10-23T03:50:47.473Z,6.00
2023-10-23T03:53:14.023Z,5.87
2023-10-23T03:55:40.540Z,5.84
2023-10-23T03:58:07.047Z,5.83
2023-10-23T04:00:33.766Z,5.63
2023-10-23T04:03:00.361Z,5.70
2023-10-23T04:05:26.902Z,5.58
2023-10-23T04:07:53.456Z,5.47
2023-10-23T04:10:20.093Z,5.55
2023-10-23T04:12:46.611Z,5.52
2023-10-23T04:15:13.163Z,5.54
2023-10-23T04:17:39.665Z,5.62
2023-10-23T04:20:07.577Z,5.57
2023-10-23T04:22:34.099Z,5.40
2023-10-23T04:25:00.573Z,5.51
2023-10-23T04:27:27.158Z,5.41
2023-10-23T04:29:54.531Z,5.38
2023-10-23T04:32:21.049Z,5.34
2023-10-23T04:34:47.513Z,5.34
2023-10-23T04:37:14.012Z,5.38
2023-10-23T04:39:40.694Z,5.43
2023-10-23T04:42:07.392Z,5.56
2023-10-23T04:44:35.127Z,5.48
2023-10-23T04:47:01.681Z,5.48
2023-10-23T04:49:28.173Z,5.43
2023-10-23T04:51:55.016Z,5.46
2023-10-23T04:54:21.528Z,5.42
2023-10-23T04:56:48.078Z,5.47
2023-10-23T04:59:14.634Z,5.28
2023-10-23T05:01:41.252Z,5.30
2023-10-23T05:04:07.870Z,5.49
2023-10-23T05:06:34.420Z,5.67
2023-10-23T05:09:00.940Z,5.61
2023-10-23T05:11:27.504Z,5.49
2023-10-23T05:13:53.945Z,5.26
2023-10-23T05:16:20.647Z,5.37
2023-10-23T05:18:48.782Z,5.18
2023-10-23T05:21:15.427Z,5.39
2023-10-23T05:23:42.775Z,5.36
2023-10-23T05:26:11.644Z,5.28
2023-10-23T05:28:44.613Z,5.37
2023-10-23T05:31:11.293Z,5.42
2023-10-23T05:33:38.534Z,5.44
2023-10-23T05:36:06.813Z,5.36
2023-10-23T05:38:33.567Z,5.42
2023-10-23T05:41:00.801Z,5.63
2023-10-23T05:43:27.792Z,5.41
2023-10-23T05:45:57.874Z,5.45
2023-10-23T05:48:25.205Z,5.38
2023-10-23T05:51:03.326Z,5.25
2023-10-23T05:53:30.469Z,5.26
2023-10-23T05:56:05.585Z,5.42
2023-10-23T05:58:35.482Z,5.39
2023-10-23T06:01:09.545Z,5.46
2023-10-23T06:03:36.466Z,5.37
2023-10-23T06:06:03.687Z,5.28
2023-10-23T06:08:30.422Z,5.47
2023-10-23T06:10:57.049Z,5.22
2023-10-23T06:13:23.592Z,5.04
2023-10-23T06:15:50.369Z,5.12
2023-10-23T06:18:16.956Z,4.96
2023-10-23T06:20:43.436Z,4.90
2023-10-23T06:23:09.931Z,4.94
2023-10-23T06:25:36.510Z,4.91
2023-10-23T06:28:04.551Z,4.98
2023-10-23T06:30:31.256Z,5.03
2023-10-23T06:32:58.036Z,5.00
2023-10-23T06:35:24.639Z,4.96
2023-10-23T06:37:51.526Z,5.04
2023-10-23T06:40:18.086Z,5.03
2023-10-23T06:42:45.118Z,5.09
2023-10-23T06:45:11.857Z,4.96
2023-10-23T06:47:38.604Z,5.04
2023-10-23T06:50:06.358Z,5.16
2023-10-23T06:52:33.847Z,5.29
2023-10-23T06:55:00.645Z,5.44
2023-10-23T06:57:27.257Z,5.44
2023-10-23T06:59:55.728Z,5.39
2023-10-23T07:02:22.897Z,5.56
2023-10-23T07:04:49.526Z,5.53
2023-10-23T07:07:28.623Z,5.86
2023-10-23T07:10:00.396Z,5.67
2023-10-23T07:12:28.182Z,5.64
2023-10-23T07:14:54.763Z,5.83
2023-10-23T07:17:21.436Z,5.60
2023-10-23T07:19:47.929Z,5.70
2023-10-23T07:22:14.415Z,5.64
2023-10-23T07:24:41.080Z,5.81
2023-10-23T07:27:12.553Z,6.05
2023-10-23T07:29:39.467Z,6.16
2023-10-23T07:32:06.493Z,6.08
2023-10-23T07:34:32.997Z,6.26
2023-10-23T07:36:59.898Z,6.41
2023-10-23T07:39:26.553Z,6.57
2023-10-23T07:41:53.090Z,6.65
2023-10-23T07:44:21.745Z,6.73
2023-10-23T07:46:48.839Z,7.06
2023-10-23T07:49:15.580Z,6.92
2023-10-23T07:51:42.198Z,7.03
2023-10-23T07:54:09.239Z,7.11
2023-10-23T07:56:35.716Z,7.30
2023-10-23T07:59:02.412Z,7.54
2023-10-23T08:01:29.023Z,7.40
2023-10-23T08:03:55.850Z,7.74
2023-10-23T08:06:22.523Z,7.80
2023-10-23T08:08:49.096Z,7.79
2023-10-23T08:11:15.663Z,7.95
2023-10-23T08:13:42.249Z,8.22
2023-10-23T08:16:08.897Z,8.40
2023-10-23T08:18:39.738Z,8.44
2023-10-23T08:21:16.106Z,8.58
2023-10-23T08:23:44.853Z,8.60
2023-10-23T08:26:11.565Z,8.52
2023-10-23T08:31:16.673Z,9.00
2023-10-23T08:33:47.648Z,9.11
2023-10-23T08:36:14.206Z,9.22
2023-10-23T08:38:40.718Z,9.14
2023-10-23T08:41:11.179Z,9.24
2023-10-23T08:43:38.269Z,9.53
2023-10-23T08:46:05.831Z,9.40
2023-10-23T08:48:32.519Z,9.24
2023-10-23T08:50:59.479Z,9.58
2023-10-23T08:53:34.792Z,9.83
2023-10-23T08:56:06.383Z,9.93
2023-10-23T08:58:34.538Z,9.49
2023-10-23T09:01:01.257Z,9.78
2023-10-23T09:04:02.411Z,10.22
2023-10-23T09:06:19.385Z,10.01
2023-10-23T09:08:46.554Z,11.14
2023-10-23T09:11:14.829Z,10.67
2023-10-23T09:13:42.439Z,10.63
2023-10-23T09:16:10.856Z,10.60
2023-10-23T09:18:50.781Z,10.72
2023-10-23T09:21:17.496Z,11.00
2023-10-23T09:23:55.032Z,11.86
2023-10-23T09:26:22.899Z,12.47
2023-10-23T09:28:51.512Z,12.70
2023-10-23T09:31:18.128Z,12.27
2023-10-23T09:33:46.243Z,11.72
2023-10-23T09:36:13.728Z,11.47
2023-10-23T09:38:42.338Z,11.36
2023-10-23T09:41:10.843Z,11.35
2023-10-23T09:43:46.239Z,11.36
2023-10-23T09:46:15.639Z,11.06
2023-10-23T09:48:44.434Z,11.14
2023-10-23T09:51:16.276Z,11.30
2023-10-23T09:53:49.820Z,11.36
2023-10-23T09:56:29.954Z,11.91
2023-10-23T09:59:01.209Z,12.52
2023-10-23T10:01:42.335Z,12.60
2023-10-23T10:04:18.609Z,12.79
2023-10-23T10:06:48.472Z,12.52
2023-10-23T10:09:16.649Z,12.57
2023-10-23T10:11:46.798Z,12.79
2023-10-23T10:14:14.098Z,13.16
2023-10-23T10:16:41.394Z,13.85
2023-10-23T10:19:09.357Z,14.46
2023-10-23T10:21:55.889Z,15.22
2023-10-23T10:24:22.726Z,13.83
2023-10-23T10:26:49.947Z,14.04
2023-10-23T10:29:16.453Z,14.78
2023-10-23T10:32:01.298Z,14.40
2023-10-23T10:34:30.894Z,14.61
2023-10-23T10:37:01.150Z,14.49
2023-10-23T10:39:51.697Z,14.35
2023-10-23T10:42:19.642Z,14.78
2023-10-23T10:44:58.999Z,15.62
2023-10-23T10:47:38.273Z,14.67
2023-10-23T10:50:05.395Z,14.69
2023-10-23T10:52:36.570Z,14.99
2023-10-23T10:55:05.598Z,14.72
2023-10-23T10:57:32.796Z,14.97
2023-10-23T11:00:00.282Z,14.44
2023-10-23T11:02:27.617Z,14.87
2023-10-23T11:04:54.171Z,14.96
2023-10-23T11:07:24.149Z,14.90
2023-10-23T11:09:51.960Z,14.64
2023-10-23T11:12:22.325Z,15.04
2023-10-23T11:14:48.942Z,14.94
2023-10-23T11:17:16.052Z,14.87
2023-10-23T11:19:43.515Z,14.48
2023-10-23T11:22:14.696Z,14.36
2023-10-23T11:24:41.962Z,14.56
2023-10-23T11:27:09.070Z,14.16
2023-10-23T11:29:44.593Z,14.04
2023-10-23T11:32:15.196Z,14.00
2023-10-23T11:34:42.625Z,13.74
2023-10-23T11:37:11.078Z,13.60
2023-10-23T11:39:39.361Z,13.67
2023-10-23T11:42:07.202Z,13.93
2023-10-23T11:44:37.332Z,14.07
2023-10-23T11:47:09.513Z,13.94
2023-10-23T11:49:36.174Z,13.88
2023-10-23T11:52:03.766Z,14.08
2023-10-23T11:54:31.445Z,13.91
2023-10-23T11:57:00.289Z,14.00
2023-10-23T11:59:28.398Z,14.57
2023-10-23T12:01:58.476Z,14.25
2023-10-23T12:07:07.287Z,14.34
2023-10-23T12:09:33.877Z,14.53
2023-10-23T12:12:00.465Z,14.96
2023-10-23T12:14:27.021Z,14.50
2023-10-23T12:16:53.498Z,15.07
2023-10-23T12:19:20.716Z,15.86
2023-10-23T12:21:47.380Z,15.88
2023-10-23T12:24:13.902Z,16.02
2023-10-23T12:26:41.298Z,15.13
2023-10-23T12:29:10.723Z,15.25
2023-10-23T12:32:02.013Z,14.67
2023-10-23T12:34:24.485Z,14.55
2023-10-23T12:36:51.135Z,14.91
2023-10-23T12:39:17.627Z,15.11
2023-10-23T12:41:44.295Z,15.11
2023-10-23T12:44:10.786Z,15.53
2023-10-23T12:46:37.402Z,15.77
2023-10-23T12:49:04.106Z,15.29
2023-10-23T12:51:30.726Z,15.13
2023-10-23T12:53:57.179Z,14.67
2023-10-23T12:56:23.685Z,14.70
2023-10-23T12:58:50.221Z,14.40
2023-10-23T13:01:16.830Z,14.45
2023-10-23T13:03:43.374Z,14.73
2023-10-23T13:06:09.911Z,14.69
2023-10-23T13:08:36.369Z,14.13
2023-10-23T13:11:02.890Z,14.18
2023-10-23T13:13:29.524Z,14.17
2023-10-23T13:15:56.228Z,13.96
2023-10-23T13:18:22.777Z,13.85
2023-10-23T13:21:28.768Z,13.82
2023-10-23T13:23:35.810Z,13.65
2023-10-23T13:26:13.510Z,13.68
2023-10-23T13:28:40.837Z,13.66
2023-10-23T13:31:07.447Z,13.59
2023-10-23T13:33:34.114Z,13.42
2023-10-23T13:36:00.679Z,13.49
2023-10-23T13:38:27.387Z,13.43
2023-10-23T13:40:54.100Z,13.42
2023-10-23T13:43:20.668Z,13.60
2023-10-23T13:45:47.340Z,13.68
2023-10-23T13:48:14.046Z,13.65
2023-10-23T13:50:41.851Z,13.55
2023-10-23T13:53:09.267Z,13.49
2023-10-23T13:55:35.954Z,13.36
2023-10-23T13:58:02.660Z,13.61
2023-10-23T14:00:29.187Z,13.48
2023-10-23T14:02:55.718Z,13.70
2023-10-23T14:05:22.399Z,13.73
2023-10-23T14:07:49.043Z,13.65
2023-10-23T14:10:21.575Z,13.68
2023-10-23T14:12:52.119Z,13.63
2023-10-23T14:15:19.341Z,13.83
2023-10-23T14:17:45.830Z,13.50
2023-10-23T14:20:12.701Z,13.57
2023-10-23T14:22:41.018Z,13.61
2023-10-23T14:25:09.659Z,13.53
2023-10-23T14:27:37.045Z,13.57
2023-10-23T14:30:07.431Z,13.59
2023-10-23T14:32:35.491Z,13.54
2023-10-23T14:35:02.591Z,13.67
2023-10-23T14:37:29.651Z,13.85
2023-10-23T14:39:58.695Z,13.69
2023-10-23T14:42:25.850Z,13.76
2023-10-23T14:44:52.372Z,13.91
2023-10-23T14:47:19.086Z,13.88
2023-10-23T14:49:46.108Z,13.79
2023-10-23T14:52:12.692Z,13.76
2023-10-23T14:54:39.212Z,13.74
2023-10-23T14:57:05.820Z,13.69
2023-10-23T14:59:33.248Z,13.56
2023-10-23T15:01:59.919Z,13.65
2023-10-23T15:04:27.271Z,13.65
2023-10-23T15:06:53.820Z,13.84
2023-10-23T15:09:21.341Z,13.84
2023-10-23T15:11:48.626Z,14.03
2023-10-23T15:14:15.257Z,13.97
2023-10-23T15:16:41.780Z,13.95
2023-10-23T15:19:09.718Z,13.86
2023-10-23T15:21:36.166Z,13.94
2023-10-23T15:24:02.813Z,13.78
2023-10-23T15:26:29.320Z,13.85
2023-10-23T15:28:56.081Z,13.61
2023-10-23T15:31:22.757Z,13.78
2023-10-23T15:33:49.325Z,13.68
2023-10-23T15:36:15.953Z,13.63
2023-10-23T15:38:42.650Z,13.68
2023-10-23T15:41:11.651Z,13.68
2023-10-23T15:43:40.209Z,13.43
2023-10-23T15:46:15.051Z,13.46
2023-10-23T15:48:42.393Z,13.11
2023-10-23T15:51:09.395Z,13.17
2023-10-23T15:53:35.921Z,13.10
2023-10-23T15:56:02.516Z,13.13
2023-10-23T15:58:29.642Z,13.14
2023-10-23T16:00:57.728Z,12.88
2023-10-23T16:03:24.887Z,12.85
2023-10-23T16:05:53.502Z,12.90
2023-10-23T16:08:20.020Z,12.95
2023-10-23T16:10:51.188Z,12.93
2023-10-23T16:13:19.396Z,12.93
2023-10-23T16:15:46.996Z,12.95
2023-10-23T16:18:15.997Z,12.94
2023-10-23T16:20:45.804Z,12.69
2023-10-23T16:23:12.575Z,12.71
2023-10-23T16:25:42.936Z,12.73
2023-10-23T16:28:10.857Z,12.64
2023-10-23T16:30:39.097Z,12.60
2023-10-23T16:33:05.774Z,12.46
2023-10-23T16:35:35.196Z,12.48
2023-10-23T16:38:01.734Z,12.54
2023-10-23T16:40:28.376Z,12.33
2023-10-23T16:42:55.005Z,12.42
2023-10-23T16:45:21.743Z,12.46
2023-10-23T16:47:48.260Z,12.38
2023-10-23T16:50:14.857Z,12.47
2023-10-23T16:52:45.780Z,12.34
2023-10-23T16:55:12.656Z,12.47
2023-10-23T16:57:39.988Z,12.34
2023-10-23T17:00:07.055Z,12.28
2023-10-23T17:02:33.799Z,12.39
2023-10-23T17:05:00.739Z,12.33
2023-10-23T17:07:31.231Z,12.42
2023-10-23T17:09:59.546Z,12.47
2023-10-23T17:12:26.138Z,12.50
2023-10-23T17:14:52.702Z,12.49
2023-10-23T17:17:21.775Z,12.53
2023-10-23T17:19:49.463Z,12.46
2023-10-23T17:22:16.346Z,12.37
2023-10-23T17:24:43.017Z,12.53
2023-10-23T17:27:13.795Z,12.22
2023-10-23T17:29:40.926Z,12.23
2023-10-23T17:32:11.092Z,12.31
2023-10-23T17:34:38.314Z,12.36
2023-10-23T17:37:05.263Z,12.24
2023-10-23T17:39:32.271Z,12.22
2023-10-23T17:41:58.925Z,12.26
2023-10-23T17:44:25.428Z,12.04
2023-10-23T17:46:52.979Z,12.13
2023-10-23T17:49:19.894Z,12.09
2023-10-23T17:51:46.647Z,12.00
2023-10-23T17:54:15.706Z,12.02
2023-10-23T17:56:43.048Z,11.95
2023-10-23T17:59:09.658Z,11.89
2023-10-23T18:01:36.200Z,11.70
2023-10-23T18:04:02.909Z,11.60
2023-10-23T18:06:29.463Z,11.81
2023-10-23T18:08:57.025Z,11.92
2023-10-23T18:11:23.604Z,11.99
2023-10-23T18:13:50.122Z,12.14
2023-10-23T18:16:16.750Z,12.18
2023-10-23T18:18:43.266Z,12.26
2023-10-23T18:21:12.118Z,12.04
2023-10-23T18:23:39.009Z,12.09
2023-10-23T18:26:05.529Z,12.02
2023-10-23T18:28:32.908Z,12.12
2023-10-23T18:31:00.999Z,12.24
2023-10-23T18:33:27.738Z,12.14
2023-10-23T18:36:01.220Z,11.92
2023-10-23T18:38:28.544Z,12.01
2023-10-23T18:40:55.958Z,11.90
2023-10-23T18:43:25.870Z,11.95
2023-10-23T18:45:52.609Z,11.99
2023-10-23T18:48:19.200Z,12.17
2023-10-23T18:50:45.734Z,12.19
2023-10-23T18:53:12.261Z,12.19
2023-10-23T18:55:38.827Z,11.96
2023-10-23T18:58:05.499Z,11.70
2023-10-23T19:00:32.092Z,11.84
2023-10-23T19:02:58.731Z,12.12
2023-10-23T19:05:25.344Z,12.03
2023-10-23T19:07:51.919Z,12.11
2023-10-23T19:10:18.695Z,12.14
2023-10-23T19:12:45.240Z,11.92
2023-10-23T19:15:11.802Z,11.96
2023-10-23T19:17:40.918Z,12.11
2023-10-23T19:20:09.222Z,11.99
2023-10-23T19:22:37.133Z,11.91
2023-10-23T19:25:05.169Z,11.80
2023-10-23T19:27:32.286Z,11.73
2023-10-23T19:29:58.964Z,11.71
2023-10-23T19:32:26.198Z,11.74
2023-10-23T19:34:53.201Z,11.80
2023-10-23T19:37:20.058Z,11.79
2023-10-23T19:39:47.010Z,11.73
2023-10-23T19:42:18.921Z,12.00
2023-10-23T19:44:45.752Z,12.09
2023-10-23T19:47:16.059Z,12.12
2023-10-23T19:49:43.955Z,12.27
2023-10-23T19:52:14.348Z,12.23
2023-10-23T19:54:48.322Z,12.04
2023-10-23T19:57:17.928Z,12.06
2023-10-23T19:59:44.559Z,12.09
2023-10-23T20:02:11.533Z,12.09
2023-10-23T20:04:38.465Z,12.19
2023-10-23T20:07:05.299Z,12.01
2023-10-23T20:09:31.893Z,12.00
2023-10-23T20:11:58.860Z,12.02
2023-10-23T20:14:25.537Z,11.87
2023-10-23T20:16:52.220Z,11.92
2023-10-23T20:19:24.688Z,12.01
2023-10-23T20:21:52.728Z,12.23
2023-10-23T20:24:28.642Z,12.28
2023-10-23T20:27:26.391Z,12.22
2023-10-23T20:29:54.176Z,12.22
2023-10-23T20:32:25.806Z,12.13
2023-10-23T20:34:52.465Z,11.73
2023-10-23T20:37:19.140Z,11.82
2023-10-23T20:39:45.672Z,11.95
2023-10-23T20:42:12.145Z,11.90
2023-10-23T20:44:38.927Z,12.00
2023-10-23T20:47:05.927Z,12.22
2023-10-23T20:49:33.625Z,12.12
2023-10-23T20:52:00.262Z,12.23
2023-10-23T20:54:26.760Z,12.40
2023-10-23T20:56:58.435Z,12.41
2023-10-23T20:59:27.654Z,12.44
2023-10-23T21:01:54.344Z,12.26
2023-10-23T21:04:20.894Z,12.35
2023-10-23T21:06:47.426Z,12.35
2023-10-23T21:09:19.822Z,12.02
2023-10-23T21:11:52.195Z,11.94
2023-10-23T21:14:18.778Z,11.82
2023-10-23T21:16:55.762Z,11.99
2023-10-23T21:19:22.679Z,11.95
2023-10-23T21:21:49.709Z,11.77
2023-10-23T21:24:16.359Z,11.90
2023-10-23T21:26:45.417Z,12.01
2023-10-23T21:29:24.319Z,12.05
2023-10-23T21:31:53.141Z,12.03
2023-10-23T21:34:21.652Z,11.63
2023-10-23T21:36:54.413Z,11.71
2023-10-23T21:39:23.186Z,11.84
2023-10-23T21:41:52.364Z,11.81
2023-10-23T21:44:21.382Z,11.90
2023-10-23T21:46:53.821Z,11.94
2023-10-23T21:49:26.354Z,11.97
2023-10-23T21:51:58.549Z,11.82
2023-10-23T21:54:25.354Z,11.85
2023-10-23T21:57:20.189Z,11.70
2023-10-23T21:59:52.744Z,11.53
2023-10-23T22:02:23.120Z,11.19
2023-10-23T22:04:52.276Z,11.32
2023-10-23T22:07:19.329Z,11.36
2023-10-23T22:09:46.280Z,11.52
2023-10-23T22:12:13.440Z,11.44
2023-10-23T22:14:40.076Z,11.30
2023-10-23T22:17:06.807Z,11.36
2023-10-23T22:19:33.520Z,11.60
2023-10-23T22:22:02.227Z,11.60
2023-10-23T22:24:28.769Z,11.42
2023-10-23T22:26:55.630Z,11.43
2023-10-23T22:29:22.356Z,11.60
2023-10-23T22:31:48.845Z,11.75
2023-10-23T22:34:15.468Z,11.63
2023-10-23T22:36:42.010Z,11.55
2023-10-23T22:39:08.547Z,11.53
2023-10-23T22:41:40.098Z,11.71
2023-10-23T22:44:07.362Z,11.65
2023-10-23T22:46:33.958Z,11.58
2023-10-23T22:49:00.544Z,11.79
2023-10-23T22:51:27.431Z,11.80
2023-10-23T22:53:54.090Z,11.71
2023-10-23T22:56:22.226Z,11.78
2023-10-23T22:58:49.023Z,11.64
2023-10-23T23:01:15.832Z,11.75
2023-10-23T23:03:42.869Z,11.78
2023-10-23T23:06:10.716Z,12.04
2023-10-23T23:08:41.939Z,11.97
2023-10-23T23:11:08.651Z,12.03
2023-10-23T23:13:35.551Z,11.80
2023-10-23T23:16:05.357Z,11.86
2023-10-23T23:18:33.854Z,11.73
2023-10-23T23:21:03.197Z,11.71
2023-10-23T23:23:29.802Z,11.80
2023-10-23T23:25:56.395Z,11.93
2023-10-23T23:28:22.885Z,12.07
2023-10-23T23:30:49.425Z,12.11
2023-10-23T23:33:15.867Z,11.80
2023-10-23T23:35:42.345Z,11.84
2023-10-23T23:38:08.819Z,12.06
2023-10-23T23:40:35.333Z,12.20
2023-10-23T23:43:01.952Z,11.96
2023-10-23T23:45:28.483Z,12.38
2023-10-23T23:47:55.113Z,12.17
2023-10-23T23:50:21.676Z,12.18
2023-10-23T23:52:48.169Z,12.46
2023-10-23T23:55:14.738Z,12.61
2023-10-23T23:57:41.240Z,12.61
